createdAt,value
2023-02-02T00:01:33.716Z,1.30
2023-02-02T00:04:01.355Z,1.37
2023-02-02T00:06:29.895Z,1.20
2023-02-02T00:08:58.552Z,1.17
2023-02-02T00:11:26.179Z,1.45
2023-02-02T00:13:53.783Z,0.85
2023-02-02T00:16:50.188Z,0.90
2023-02-02T00:19:30.353Z,1.00
2023-02-02T00:21:57.628Z,0.90
2023-02-02T00:24:25.018Z,0.60
2023-02-02T00:26:54.486Z,1.00
2023-02-02T00:29:23.927Z,0.70
2023-02-02T00:31:51.621Z,1.10
2023-02-02T00:34:19.430Z,1.20
2023-02-02T00:36:47.615Z,1.25
2023-02-02T00:39:19.817Z,1.10
2023-02-02T00:41:47.190Z,1.08
2023-02-02T00:44:33.409Z,1.23
2023-02-02T00:47:00.527Z,1.25
2023-02-02T00:49:27.957Z,1.08
2023-02-02T00:51:55.046Z,0.80
2023-02-02T00:54:22.134Z,0.80
2023-02-02T00:56:49.515Z,0.73
2023-02-02T00:59:16.588Z,0.82
2023-02-02T01:01:44.803Z,0.90
2023-02-02T01:04:12.180Z,0.93
2023-02-02T01:06:40.399Z,0.80
2023-02-02T01:09:08.553Z,0.70
2023-02-02T01:11:36.793Z,0.62
2023-02-02T01:14:04.020Z,0.65
2023-02-02T01:16:31.220Z,0.88
2023-02-02T01:18:58.525Z,0.50
2023-02-02T01:21:25.603Z,0.73
2023-02-02T01:23:52.734Z,0.50
2023-02-02T01:26:20.185Z,0.40
2023-02-02T01:28:47.591Z,0.37
2023-02-02T01:31:17.229Z,0.40
2023-02-02T01:33:46.343Z,0.52
2023-02-02T01:36:15.926Z,0.52
2023-02-02T01:38:43.349Z,0.30
2023-02-02T01:41:16.694Z,0.37
2023-02-02T01:43:44.097Z,0.50
2023-02-02T01:46:12.994Z,0.65
2023-02-02T01:48:42.341Z,0.35
2023-02-02T01:51:12.358Z,0.68
2023-02-02T01:53:42.185Z,0.60
2023-02-02T01:56:11.547Z,0.40
2023-02-02T01:58:40.891Z,0.60
2023-02-02T02:01:09.823Z,0.60
2023-02-02T02:03:37.822Z,0.50
2023-02-02T02:06:11.050Z,0.40
2023-02-02T02:08:42.578Z,0.40
2023-02-02T02:11:09.886Z,0.55
2023-02-02T02:13:56.997Z,0.70
2023-02-02T02:17:05.838Z,0.57
2023-02-02T02:20:06.177Z,0.70
2023-02-02T02:23:14.251Z,0.40
2023-02-02T02:26:41.516Z,0.60
2023-02-02T02:29:35.869Z,0.77
2023-02-02T02:32:20.095Z,0.60
2023-02-02T02:34:59.279Z,0.93
2023-02-02T02:37:39.830Z,0.60
2023-02-02T02:40:22.772Z,0.73
2023-02-02T02:42:54.178Z,0.62
2023-02-02T02:45:22.330Z,0.73
2023-02-02T02:47:50.231Z,0.73
2023-02-02T02:50:17.400Z,0.60
2023-02-02T02:52:45.849Z,0.90
2023-02-02T02:55:14.305Z,0.65
2023-02-02T02:57:47.799Z,0.75
2023-02-02T03:00:36.996Z,1.27
2023-02-02T03:03:07.090Z,1.25
2023-02-02T03:05:43.390Z,0.62
2023-02-02T03:08:19.521Z,0.80
2023-02-02T03:10:47.311Z,0.50
2023-02-02T03:13:15.257Z,0.90
2023-02-02T03:15:46.069Z,0.85
2023-02-02T03:18:15.669Z,0.70
2023-02-02T03:20:43.831Z,0.82
2023-02-02T03:23:10.849Z,0.50
2023-02-02T03:25:38.282Z,1.05
2023-02-02T03:28:05.929Z,0.43
2023-02-02T03:30:33.623Z,0.82
2023-02-02T03:33:01.198Z,0.95
2023-02-02T03:35:28.285Z,0.40
2023-02-02T03:37:55.444Z,0.43
2023-02-02T03:40:22.926Z,0.60
2023-02-02T03:42:50.020Z,0.77
2023-02-02T03:45:17.937Z,0.68
2023-02-02T03:47:45.234Z,0.68
2023-02-02T03:50:12.457Z,0.30
2023-02-02T03:52:39.446Z,0.65
2023-02-02T03:55:07.420Z,0.57
2023-02-02T03:57:34.393Z,0.60
2023-02-02T04:00:01.407Z,0.35
2023-02-02T04:02:28.615Z,0.30
2023-02-02T04:04:55.989Z,0.80
2023-02-02T04:07:23.092Z,0.35
2023-02-02T04:09:50.109Z,0.28
2023-02-02T04:12:17.455Z,0.60
2023-02-02T04:14:44.458Z,0.65
2023-02-02T04:17:11.700Z,0.40
2023-02-02T04:19:39.233Z,0.50
2023-02-02T04:22:06.351Z,0.65
2023-02-02T04:24:33.488Z,0.40
2023-02-02T04:27:00.980Z,0.60
2023-02-02T04:29:28.155Z,0.60
2023-02-02T04:31:55.336Z,0.50
2023-02-02T04:34:22.749Z,0.90
2023-02-02T04:36:49.868Z,0.32
2023-02-02T04:39:17.127Z,0.62
2023-02-02T04:41:44.539Z,0.25
2023-02-02T04:44:16.028Z,0.30
2023-02-02T04:46:43.922Z,0.70
2023-02-02T04:49:12.335Z,0.40
2023-02-02T04:51:40.215Z,0.47
2023-02-02T04:54:07.755Z,0.52
2023-02-02T04:56:35.195Z,0.30
2023-02-02T04:59:02.454Z,0.60
2023-02-02T05:01:30.806Z,0.60
2023-02-02T05:03:58.480Z,0.43
2023-02-02T05:06:25.701Z,0.25
2023-02-02T05:08:52.870Z,0.50
2023-02-02T05:11:22.503Z,0.40
2023-02-02T05:13:51.794Z,0.80
2023-02-02T05:16:19.449Z,0.50
2023-02-02T05:18:54.851Z,0.50
2023-02-02T05:21:22.494Z,0.80
2023-02-02T05:23:50.114Z,0.90
2023-02-02T05:26:27.811Z,0.70
2023-02-02T05:28:56.496Z,0.68
2023-02-02T05:31:23.776Z,0.70
2023-02-02T05:33:50.799Z,0.82
2023-02-02T05:36:18.319Z,1.12
2023-02-02T05:38:45.492Z,0.43
2023-02-02T05:41:12.675Z,0.80
2023-02-02T05:43:40.086Z,0.85
2023-02-02T05:46:07.235Z,0.52
2023-02-02T05:48:34.315Z,0.17
2023-02-02T05:51:15.182Z,0.60
2023-02-02T05:53:44.949Z,0.50
2023-02-02T05:56:13.194Z,1.10
2023-02-02T05:58:40.331Z,0.77
2023-02-02T06:01:07.571Z,0.75
2023-02-02T06:03:35.067Z,0.55
2023-02-02T06:06:02.372Z,0.80
2023-02-02T06:08:29.547Z,0.98
2023-02-02T06:10:56.967Z,0.52
2023-02-02T06:13:24.041Z,0.98
2023-02-02T06:15:51.188Z,0.73
2023-02-02T06:18:18.566Z,0.85
2023-02-02T06:20:47.002Z,1.12
2023-02-02T06:23:14.111Z,0.80
2023-02-02T06:25:41.729Z,0.80
2023-02-02T06:28:08.877Z,0.57
2023-02-02T06:30:36.096Z,0.90
2023-02-02T06:33:03.545Z,0.70
2023-02-02T06:35:30.680Z,0.70
2023-02-02T06:37:58.035Z,1.12
2023-02-02T06:40:26.427Z,0.65
2023-02-02T06:43:01.540Z,0.57
2023-02-02T06:45:30.149Z,0.85
2023-02-02T06:48:03.490Z,0.50
2023-02-02T06:50:30.889Z,0.60
2023-02-02T06:52:57.968Z,0.80
2023-02-02T06:55:25.401Z,0.70
2023-02-02T06:57:59.957Z,0.40
2023-02-02T07:00:28.033Z,0.68
2023-02-02T07:02:55.986Z,0.80
2023-02-02T07:05:24.305Z,0.57
2023-02-02T07:07:51.826Z,0.90
2023-02-02T07:11:13.072Z,0.90
2023-02-02T07:13:09.606Z,0.77
2023-02-02T07:15:39.451Z,1.10
2023-02-02T07:18:07.037Z,0.80
2023-02-02T07:20:34.228Z,0.93
2023-02-02T07:23:04.502Z,0.75
2023-02-02T07:25:31.822Z,0.90
2023-02-02T07:27:58.967Z,0.70
2023-02-02T07:30:29.820Z,1.10
2023-02-02T07:32:57.457Z,0.70
2023-02-02T07:35:25.379Z,1.00
2023-02-02T07:37:54.495Z,1.17
2023-02-02T07:40:21.955Z,1.00
2023-02-02T07:42:49.340Z,0.80
2023-02-02T07:45:27.047Z,0.73
2023-02-02T07:47:58.639Z,0.60
2023-02-02T07:50:27.349Z,1.20
2023-02-02T07:52:54.635Z,0.37
2023-02-02T07:55:22.629Z,0.88
2023-02-02T07:57:52.420Z,1.30
2023-02-02T08:00:20.165Z,0.70
2023-02-02T08:02:50.720Z,0.90
2023-02-02T08:05:17.887Z,0.80
2023-02-02T08:07:45.068Z,0.60
2023-02-02T08:10:12.655Z,0.60
2023-02-02T08:12:39.823Z,0.77
2023-02-02T08:15:08.142Z,0.70
2023-02-02T08:17:35.505Z,0.68
2023-02-02T08:20:02.630Z,0.55
2023-02-02T08:22:29.785Z,0.70
2023-02-02T08:24:57.142Z,0.62
2023-02-02T08:27:25.170Z,0.52
2023-02-02T08:29:52.331Z,0.45
2023-02-02T08:32:19.690Z,0.60
2023-02-02T08:34:49.014Z,0.52
2023-02-02T08:37:16.121Z,0.80
2023-02-02T08:39:44.200Z,0.40
2023-02-02T10:36:40.163Z,0.60
2023-02-02T10:39:33.887Z,0.57
2023-02-02T10:42:11.804Z,0.95
2023-02-02T10:44:48.339Z,0.50
2023-02-02T10:47:23.384Z,0.80
2023-02-02T10:49:57.923Z,0.65
2023-02-02T10:52:31.718Z,0.62
2023-02-02T10:58:11.225Z,1.00
2023-02-02T11:01:07.829Z,0.93
2023-02-02T11:03:34.908Z,0.50
2023-02-02T11:06:23.596Z,0.80
2023-02-02T11:08:59.571Z,0.95
2023-02-02T11:11:33.264Z,0.52
2023-02-02T11:14:09.391Z,1.23
2023-02-02T11:16:43.708Z,0.50
2023-02-02T11:19:32.089Z,0.77
2023-02-02T11:22:02.532Z,0.47
2023-02-02T11:24:30.908Z,0.60
2023-02-02T11:27:28.799Z,0.80
2023-02-02T11:29:59.467Z,0.50
2023-02-02T11:32:27.644Z,0.62
2023-02-02T11:35:22.295Z,1.30
2023-02-02T11:38:01.794Z,0.90
2023-02-02T11:40:40.804Z,0.60
2023-02-02T11:44:06.249Z,0.60
2023-02-02T11:46:38.335Z,0.60
2023-02-02T11:49:13.048Z,0.85
2023-02-02T11:51:40.192Z,0.88
2023-02-02T11:54:17.431Z,0.73
2023-02-02T11:56:50.171Z,0.60
2023-02-02T11:59:36.668Z,0.80
2023-02-02T12:02:12.599Z,0.93
2023-02-02T12:04:40.717Z,0.80
2023-02-02T12:07:31.017Z,0.80
2023-02-02T12:10:18.025Z,1.27
2023-02-02T12:12:51.215Z,0.60
2023-02-02T12:15:19.872Z,0.57
2023-02-02T12:17:48.488Z,0.82
2023-02-02T12:20:34.167Z,0.50
2023-02-02T12:23:33.995Z,0.60
2023-02-02T12:26:26.759Z,0.70
2023-02-02T12:29:13.927Z,0.62
2023-02-02T12:31:49.956Z,0.80
2023-02-02T12:34:44.974Z,0.82
2023-02-02T12:37:21.107Z,1.08
2023-02-02T12:40:03.340Z,0.60
2023-02-02T12:42:33.414Z,1.08
2023-02-02T12:45:22.975Z,0.52
2023-02-02T12:48:30.591Z,0.95
2023-02-02T12:50:57.895Z,0.90
2023-02-02T12:53:33.985Z,0.70
2023-02-02T12:56:20.923Z,0.55
2023-02-02T12:59:13.118Z,0.60
2023-02-02T13:01:40.436Z,0.80
2023-02-02T13:04:21.525Z,1.00
2023-02-02T13:07:26.683Z,0.57
2023-02-02T13:10:11.698Z,1.23
2023-02-02T13:13:08.849Z,0.80
2023-02-02T13:15:36.952Z,0.62
2023-02-02T13:18:10.912Z,0.85
2023-02-02T13:20:39.798Z,0.75
2023-02-02T13:23:14.242Z,0.93
2023-02-02T13:28:21.743Z,0.98
2023-02-02T13:30:50.125Z,1.00
2023-02-02T13:33:25.248Z,0.65
2023-02-02T13:35:58.086Z,1.12
2023-02-02T13:38:28.092Z,0.70
2023-02-02T13:40:57.406Z,0.80
2023-02-02T13:43:54.823Z,0.90
2023-02-02T13:46:40.799Z,0.50
2023-02-02T13:49:30.662Z,0.93
2023-02-02T13:52:30.932Z,0.93
2023-02-02T13:55:05.162Z,0.88
2023-02-02T13:57:49.009Z,1.30
2023-02-02T14:00:18.844Z,0.47
2023-02-02T14:02:56.059Z,0.65
2023-02-02T14:05:29.141Z,0.70
2023-02-02T14:08:08.468Z,0.80
2023-02-02T14:10:40.526Z,0.50
2023-02-02T14:13:32.745Z,1.08
2023-02-02T14:16:03.376Z,1.05
2023-02-02T14:18:49.377Z,0.80
2023-02-02T14:21:31.523Z,0.85
2023-02-02T14:24:03.095Z,0.70
2023-02-02T14:26:40.637Z,1.35
2023-02-02T14:29:31.315Z,1.17
2023-02-02T14:32:01.216Z,0.80
2023-02-02T14:34:31.422Z,0.90
2023-02-02T14:37:09.223Z,0.80
2023-02-02T14:40:00.020Z,0.95
2023-02-02T14:43:00.558Z,1.00
2023-02-02T14:45:31.738Z,0.82
2023-02-02T14:48:17.251Z,0.77
2023-02-02T14:50:58.408Z,1.02
2023-02-02T14:53:38.806Z,0.65
2023-02-02T14:56:11.504Z,1.17
2023-02-02T14:58:43.810Z,1.12
2023-02-02T15:01:26.040Z,0.98
2023-02-02T15:04:15.786Z,0.80
2023-02-02T15:06:44.353Z,1.15
2023-02-02T15:09:19.963Z,0.85
2023-02-02T15:12:01.092Z,0.60
2023-02-02T15:14:35.400Z,0.80
2023-02-02T15:17:12.591Z,0.73
2023-02-02T15:19:42.679Z,0.98
2023-02-02T15:22:22.966Z,0.90
2023-02-02T15:24:50.708Z,1.00
2023-02-02T15:27:18.991Z,0.80
2023-02-02T15:29:48.239Z,1.17
2023-02-02T15:32:17.641Z,1.10
2023-02-02T15:35:21.255Z,0.90
2023-02-02T15:37:55.636Z,1.10
2023-02-02T15:40:25.398Z,1.27
2023-02-02T15:43:09.219Z,0.75
2023-02-02T15:45:55.068Z,1.45
2023-02-02T15:48:32.548Z,1.20
2023-02-02T15:51:03.428Z,1.02
2023-02-02T15:53:39.306Z,1.10
2023-02-02T15:56:26.825Z,1.30
2023-02-02T15:58:56.425Z,0.98
2023-02-02T16:01:24.682Z,0.82
2023-02-02T16:04:14.941Z,0.95
2023-02-02T16:06:42.376Z,0.85
2023-02-02T16:09:23.997Z,1.20
2023-02-02T16:11:52.166Z,1.00
2023-02-02T16:14:20.011Z,0.93
2023-02-02T16:16:49.542Z,1.10
2023-02-02T16:19:16.640Z,1.90
2023-02-02T16:21:55.995Z,1.30
2023-02-02T16:24:29.341Z,1.52
2023-02-02T16:26:59.387Z,1.10
2023-02-02T16:29:28.154Z,1.37
2023-02-02T16:31:56.128Z,1.17
2023-02-02T16:34:53.034Z,1.02
2023-02-02T16:37:32.154Z,1.75
2023-02-02T16:40:16.468Z,1.58
2023-02-02T16:42:43.576Z,2.30
2023-02-02T16:45:39.876Z,1.35
2023-02-02T16:48:32.016Z,1.17
2023-02-02T16:51:17.927Z,1.27
2023-02-02T16:54:08.297Z,1.50
2023-02-02T16:56:59.906Z,1.05
2023-02-02T16:59:40.333Z,1.30
2023-02-02T17:02:30.684Z,1.58
2023-02-02T17:05:15.938Z,0.98
2023-02-02T17:08:13.963Z,1.37
2023-02-02T17:10:43.728Z,1.20
2023-02-02T17:13:33.517Z,1.17
2023-02-02T17:16:00.638Z,1.37
2023-02-02T17:18:28.079Z,1.67
2023-02-02T17:20:57.813Z,1.42
2023-02-02T17:23:27.359Z,1.87
2023-02-02T17:25:55.021Z,1.37
2023-02-02T17:28:24.443Z,2.00
2023-02-02T17:31:09.731Z,1.20
2023-02-02T17:33:37.857Z,1.37
2023-02-02T17:36:05.532Z,1.62
2023-02-02T17:38:32.809Z,1.50
2023-02-02T17:41:02.110Z,1.60
2023-02-02T17:43:30.419Z,1.83
2023-02-02T17:45:57.687Z,1.92
2023-02-02T17:48:25.135Z,2.25
2023-02-02T17:50:52.149Z,2.15
2023-02-02T17:53:21.361Z,1.85
2023-02-02T17:55:49.885Z,1.98
2023-02-02T17:58:18.105Z,1.58
2023-02-02T18:00:47.841Z,1.83
2023-02-02T18:03:15.219Z,1.35
2023-02-02T18:05:43.813Z,1.60
2023-02-02T18:08:14.538Z,1.67
2023-02-02T18:10:42.445Z,1.20
2023-02-02T18:13:20.270Z,1.42
2023-02-02T18:15:51.771Z,1.20
2023-02-02T18:18:18.857Z,1.27
2023-02-02T18:20:48.018Z,1.77
2023-02-02T18:23:16.370Z,1.12
2023-02-02T18:25:43.421Z,1.35
2023-02-02T18:28:10.895Z,1.50
2023-02-02T18:30:39.577Z,1.60
2023-02-02T18:33:10.611Z,1.35
2023-02-02T18:35:42.137Z,1.17
2023-02-02T18:38:09.850Z,1.67
2023-02-02T18:40:36.981Z,1.12
2023-02-02T18:43:04.052Z,1.48
2023-02-02T18:45:31.422Z,1.30
2023-02-02T18:48:00.280Z,0.98
2023-02-02T18:50:27.307Z,1.45
2023-02-02T18:52:56.701Z,1.40
2023-02-02T18:55:24.292Z,1.60
2023-02-02T18:57:51.697Z,1.23
2023-02-02T19:00:19.613Z,1.58
2023-02-02T19:02:47.761Z,1.30
2023-02-02T19:05:33.397Z,1.62
2023-02-02T19:08:00.719Z,1.40
2023-02-02T19:10:28.195Z,1.50
2023-02-02T19:12:58.572Z,1.52
2023-02-02T19:15:26.909Z,1.70
2023-02-02T19:17:55.409Z,1.35
2023-02-02T19:20:30.577Z,1.20
2023-02-02T19:23:06.638Z,1.50
2023-02-02T19:25:33.727Z,1.65
2023-02-02T19:28:09.340Z,1.40
2023-02-02T19:30:36.557Z,1.40
2023-02-02T19:33:10.626Z,1.48
2023-02-02T19:35:39.227Z,1.20
2023-02-02T19:38:10.641Z,1.02
2023-02-02T19:40:39.133Z,1.65
2023-02-02T19:43:12.508Z,1.87
2023-02-02T19:45:39.875Z,1.60
2023-02-02T19:48:16.154Z,1.90
2023-02-02T19:50:43.773Z,2.00
2023-02-02T19:53:23.111Z,1.85
2023-02-02T19:55:51.182Z,1.80
2023-02-02T19:58:22.903Z,2.17
2023-02-02T20:00:51.420Z,1.85
2023-02-02T20:03:23.525Z,1.92
2023-02-02T20:05:52.206Z,2.00
2023-02-02T20:08:25.515Z,1.40
2023-02-02T20:10:58.674Z,1.75
2023-02-02T20:13:35.956Z,1.48
2023-02-02T20:16:04.830Z,1.92
2023-02-02T20:18:41.668Z,1.77
2023-02-02T20:21:18.643Z,2.33
2023-02-02T20:23:46.524Z,1.87
2023-02-02T20:26:39.361Z,2.30
2023-02-02T20:29:25.649Z,2.05
2023-02-02T20:31:55.494Z,2.20
2023-02-02T20:34:30.839Z,2.47
2023-02-02T20:37:01.344Z,2.90
2023-02-02T20:39:41.291Z,1.98
2023-02-02T20:42:08.381Z,2.10
2023-02-02T20:44:36.032Z,2.75
2023-02-02T20:47:03.512Z,2.35
2023-02-02T20:49:31.771Z,1.83
2023-02-02T20:52:00.854Z,2.35
2023-02-02T20:54:28.274Z,2.35
2023-02-02T20:56:55.378Z,2.50
2023-02-02T20:59:22.842Z,2.15
2023-02-02T21:01:50.548Z,2.40
2023-02-02T21:04:18.439Z,2.40
2023-02-02T21:06:48.094Z,2.10
2023-02-02T21:09:16.286Z,1.92
2023-02-02T21:11:43.788Z,2.42
2023-02-02T21:14:11.192Z,2.22
2023-02-02T21:16:38.327Z,2.15
2023-02-02T21:19:05.481Z,2.22
2023-02-02T21:21:32.973Z,2.30
2023-02-02T21:24:00.836Z,1.92
2023-02-02T21:26:30.493Z,2.50
2023-02-02T21:28:58.864Z,2.65
2023-02-02T21:31:26.836Z,2.83
2023-02-02T21:33:54.388Z,2.47
2023-02-02T21:36:37.925Z,2.65
2023-02-02T21:39:33.268Z,2.80
2023-02-02T21:42:13.852Z,2.67
2023-02-02T21:44:44.504Z,2.45
2023-02-02T21:47:33.017Z,1.92
2023-02-02T21:50:21.009Z,2.53
2023-02-02T21:52:48.366Z,2.92
2023-02-02T21:55:36.749Z,2.60
2023-02-02T21:58:20.743Z,3.10
2023-02-02T22:00:51.347Z,2.17
2023-02-02T22:03:26.767Z,2.83
2023-02-02T22:06:01.946Z,2.35
2023-02-02T22:08:29.972Z,2.35
2023-02-02T22:10:57.036Z,1.87
2023-02-02T22:13:25.780Z,2.58
2023-02-02T22:15:53.289Z,2.60
2023-02-02T22:18:24.779Z,2.10
2023-02-02T22:20:59.594Z,2.40
2023-02-02T22:23:28.080Z,2.62
2023-02-02T22:25:56.634Z,2.37
2023-02-02T22:28:24.707Z,1.77
2023-02-02T22:30:53.354Z,2.90
2023-02-02T22:33:21.366Z,3.20
2023-02-02T22:35:48.606Z,2.97
2023-02-02T22:38:18.207Z,2.22
2023-02-02T22:40:46.258Z,2.47
2023-02-02T22:43:16.134Z,2.20
2023-02-02T22:45:44.566Z,2.72
2023-02-02T22:48:13.091Z,2.10
2023-02-02T22:50:40.768Z,2.10
2023-02-02T22:53:08.457Z,1.80
2023-02-02T22:55:35.587Z,1.73
2023-02-02T22:58:02.624Z,1.98
2023-02-02T23:00:32.275Z,1.58
2023-02-02T23:02:59.575Z,1.25
2023-02-02T23:05:27.263Z,1.65
2023-02-02T23:07:55.126Z,2.05
2023-02-02T23:10:25.218Z,1.30
2023-02-02T23:12:54.927Z,2.05
2023-02-02T23:15:22.667Z,1.80
2023-02-02T23:17:50.194Z,1.62
2023-02-02T23:20:17.699Z,1.70
2023-02-02T23:22:45.256Z,1.50
2023-02-02T23:25:13.699Z,1.92
2023-02-02T23:27:41.581Z,1.75
2023-02-02T23:30:10.227Z,1.62
2023-02-02T23:32:37.240Z,1.55
2023-02-02T23:35:05.810Z,1.50
2023-02-02T23:37:33.303Z,1.62
2023-02-02T23:40:00.299Z,1.87
2023-02-02T23:42:27.309Z,1.42
2023-02-02T23:44:54.615Z,1.58
2023-02-02T23:47:21.668Z,1.55
2023-02-02T23:49:48.720Z,1.40
2023-02-02T23:52:16.118Z,1.95
2023-02-02T23:54:43.526Z,1.85
2023-02-02T23:57:10.701Z,1.70
2023-02-02T23:59:37.978Z,1.95
